createdAt,value
2018-03-21T00:00:08.196Z,94.27
2018-03-21T00:02:35.763Z,94.17
2018-03-21T00:05:03.392Z,94.07
2018-03-21T00:07:31.020Z,94.25
2018-03-21T00:09:58.582Z,94.32
2018-03-21T00:12:26.224Z,94.25
2018-03-21T00:14:53.792Z,94.21
2018-03-21T00:17:21.377Z,94.44
2018-03-21T00:19:48.940Z,94.53
2018-03-21T00:22:16.593Z,94.46
2018-03-21T00:24:44.233Z,94.41
2018-03-21T00:27:11.862Z,94.36
2018-03-21T00:29:39.434Z,94.55
2018-03-21T00:32:07.059Z,94.66
2018-03-21T00:34:34.706Z,94.55
2018-03-21T00:37:02.331Z,94.54
2018-03-21T00:39:29.920Z,94.84
2018-03-21T00:41:57.504Z,95.19
2018-03-21T00:44:25.095Z,95.17
2018-03-21T00:46:52.722Z,95.25
2018-03-21T00:49:20.364Z,95.39
2018-03-21T00:51:47.927Z,95.53
2018-03-21T00:54:15.546Z,95.56
2018-03-21T00:56:43.172Z,95.61
2018-03-21T00:59:10.730Z,95.63
2018-03-21T01:01:38.302Z,95.67
2018-03-21T01:04:05.883Z,95.63
2018-03-21T01:06:33.519Z,95.54
2018-03-21T01:09:01.144Z,95.47
2018-03-21T01:11:28.722Z,95.34
2018-03-21T01:13:56.299Z,95.38
2018-03-21T01:16:23.936Z,95.27
2018-03-21T01:18:51.507Z,95.11
2018-03-21T01:21:19.071Z,94.95
2018-03-21T01:23:46.654Z,94.78
2018-03-21T01:26:14.280Z,94.48
2018-03-21T01:28:41.913Z,94.20
2018-03-21T01:31:09.490Z,94.02
2018-03-21T01:33:37.078Z,93.74
2018-03-21T01:36:04.687Z,93.72
2018-03-21T01:38:32.352Z,93.62
2018-03-21T01:40:59.927Z,93.67
2018-03-21T01:43:27.502Z,93.59
2018-03-21T01:45:55.113Z,93.41
2018-03-21T01:48:22.683Z,93.66
2018-03-21T01:50:50.362Z,93.72
2018-03-21T01:53:17.941Z,94.06
2018-03-21T01:55:45.520Z,94.35
2018-03-21T01:58:13.091Z,94.57
2018-03-21T02:00:40.812Z,94.43
2018-03-21T02:03:08.450Z,94.49
2018-03-21T02:05:36.016Z,94.48
2018-03-21T02:08:03.587Z,94.53
2018-03-21T02:10:31.211Z,94.55
2018-03-21T02:12:58.790Z,94.41
2018-03-21T02:15:26.430Z,94.18
2018-03-21T02:17:54.058Z,94.27
2018-03-21T02:20:21.700Z,94.17
2018-03-21T02:22:49.267Z,94.16
2018-03-21T02:25:16.863Z,94.34
2018-03-21T02:27:44.425Z,94.51
2018-03-21T02:30:12.007Z,94.79
2018-03-21T02:32:39.665Z,94.88
2018-03-21T02:35:07.295Z,94.80
2018-03-21T02:37:34.854Z,94.70
2018-03-21T02:40:02.414Z,94.66
2018-03-21T02:42:29.988Z,94.98
2018-03-21T02:44:57.619Z,95.04
2018-03-21T02:47:25.195Z,94.89
2018-03-21T02:49:52.758Z,94.76
2018-03-21T02:52:20.434Z,94.70
2018-03-21T02:54:48.089Z,94.78
2018-03-21T02:57:15.721Z,95.11
2018-03-21T02:59:43.309Z,95.26
2018-03-21T03:02:10.905Z,95.41
2018-03-21T03:04:38.543Z,95.54
2018-03-21T03:07:06.112Z,95.50
2018-03-21T03:09:33.754Z,95.49
2018-03-21T03:12:01.411Z,95.46
2018-03-21T03:14:29.094Z,95.33
2018-03-21T03:16:56.728Z,95.29
2018-03-21T03:19:24.396Z,95.28
2018-03-21T03:21:52.027Z,95.22
2018-03-21T03:24:19.590Z,95.12
2018-03-21T03:26:47.222Z,95.07
2018-03-21T03:29:14.874Z,95.11
2018-03-21T03:31:42.450Z,95.03
2018-03-21T03:34:10.033Z,94.88
2018-03-21T03:36:37.724Z,94.85
2018-03-21T03:39:05.383Z,94.90
2018-03-21T03:41:32.948Z,94.82
2018-03-21T03:44:00.534Z,94.78
2018-03-21T03:46:28.105Z,94.85
2018-03-21T03:48:55.669Z,94.97
2018-03-21T03:51:23.233Z,94.95
2018-03-21T03:53:50.879Z,94.96
2018-03-21T03:56:18.494Z,94.99
2018-03-21T03:58:46.054Z,95.00
2018-03-21T04:01:13.623Z,94.98
2018-03-21T04:03:41.198Z,94.99
2018-03-21T04:06:08.890Z,94.97
2018-03-21T04:08:36.464Z,94.96
2018-03-21T04:11:04.094Z,94.89
2018-03-21T04:13:31.710Z,94.76
2018-03-21T04:15:59.284Z,94.71
2018-03-21T04:18:26.862Z,94.56
2018-03-21T04:20:54.490Z,94.35
2018-03-21T04:23:22.118Z,94.31
2018-03-21T04:25:49.687Z,94.36
2018-03-21T04:28:17.344Z,94.35
2018-03-21T04:30:44.914Z,94.02
2018-03-21T04:33:12.481Z,94.30
2018-03-21T04:35:40.113Z,94.35
2018-03-21T04:38:07.744Z,94.45
2018-03-21T04:40:35.321Z,94.61
2018-03-21T04:43:02.890Z,94.67
2018-03-21T04:45:30.503Z,94.65
2018-03-21T04:47:58.114Z,94.73
2018-03-21T04:50:25.779Z,94.61
2018-03-21T04:52:53.402Z,94.68
2018-03-21T04:55:21.032Z,94.37
2018-03-21T04:57:48.647Z,94.31
2018-03-21T05:00:16.218Z,94.39
2018-03-21T05:02:43.783Z,94.40
2018-03-21T05:05:11.392Z,94.38
2018-03-21T05:07:38.971Z,93.99
2018-03-21T05:10:06.534Z,93.77
2018-03-21T05:12:34.173Z,93.75
2018-03-21T05:15:01.738Z,93.28
2018-03-21T05:17:29.306Z,93.54
2018-03-21T05:19:56.875Z,92.64
2018-03-21T05:22:24.441Z,91.74
2018-03-21T05:24:52.025Z,90.30
2018-03-21T05:27:19.587Z,90.58
2018-03-21T05:29:47.158Z,90.52
2018-03-21T05:32:14.731Z,90.72
2018-03-21T05:34:42.367Z,90.85
2018-03-21T05:37:10.004Z,91.20
2018-03-21T05:39:37.564Z,90.77
2018-03-21T05:42:05.139Z,91.03
2018-03-21T05:44:32.694Z,91.34
2018-03-21T05:47:00.266Z,90.30
2018-03-21T05:49:27.890Z,90.68
2018-03-21T05:51:55.463Z,90.89
2018-03-21T05:54:23.030Z,90.74
2018-03-21T05:56:50.713Z,90.56
2018-03-21T05:59:18.318Z,90.37
2018-03-21T06:01:45.881Z,89.52
2018-03-21T06:04:14.363Z,88.88
2018-03-21T06:06:41.937Z,89.07
2018-03-21T06:09:09.576Z,89.45
2018-03-21T06:11:37.147Z,88.95
2018-03-21T06:14:04.774Z,88.38
2018-03-21T06:16:32.349Z,88.43
2018-03-21T06:18:59.963Z,88.50
2018-03-21T06:21:27.525Z,88.76
2018-03-21T06:23:55.091Z,88.43
2018-03-21T06:26:22.680Z,87.71
2018-03-21T06:28:50.252Z,87.08
2018-03-21T06:31:17.892Z,86.80
2018-03-21T06:33:45.514Z,86.60
2018-03-21T06:36:13.097Z,86.06
2018-03-21T06:38:40.719Z,86.14
2018-03-21T06:41:08.294Z,86.13
2018-03-21T06:43:35.869Z,85.95
2018-03-21T06:46:03.495Z,85.63
2018-03-21T06:48:31.055Z,84.90
2018-03-21T06:50:58.676Z,84.30
2018-03-21T06:53:26.242Z,84.52
2018-03-21T06:55:53.807Z,85.12
2018-03-21T06:58:21.449Z,85.89
2018-03-21T07:00:49.014Z,85.67
2018-03-21T07:03:16.640Z,85.49
2018-03-21T07:05:44.212Z,85.72
2018-03-21T07:08:11.784Z,85.79
2018-03-21T07:10:39.414Z,85.32
2018-03-21T07:13:07.096Z,85.05
2018-03-21T07:15:46.623Z,84.98
2018-03-21T07:18:14.261Z,84.92
2018-03-21T07:20:41.893Z,85.09
2018-03-21T07:23:09.556Z,85.22
2018-03-21T07:25:37.199Z,85.15
2018-03-21T07:28:04.812Z,85.04
2018-03-21T07:30:32.450Z,84.38
2018-03-21T07:33:00.021Z,83.75
2018-03-21T07:35:27.594Z,83.36
2018-03-21T07:37:55.164Z,83.42
2018-03-21T07:40:22.791Z,83.35
2018-03-21T07:42:50.352Z,82.58
2018-03-21T07:45:17.921Z,82.35
2018-03-21T07:47:45.558Z,82.04
2018-03-21T07:50:13.182Z,81.73
2018-03-21T07:52:40.776Z,78.23
2018-03-21T07:55:08.341Z,78.30
2018-03-21T07:57:35.978Z,79.01
2018-03-21T08:00:03.544Z,78.80
2018-03-21T08:02:31.120Z,78.60
2018-03-21T08:04:58.679Z,76.95
2018-03-21T08:07:26.297Z,75.51
2018-03-21T08:09:53.931Z,76.70
2018-03-21T08:12:21.504Z,75.55
2018-03-21T08:14:49.134Z,74.55
2018-03-21T08:17:16.686Z,73.54
2018-03-21T08:19:44.247Z,72.54
2018-03-21T08:22:11.809Z,71.93
2018-03-21T08:24:39.454Z,70.91
2018-03-21T08:27:07.074Z,70.18
2018-03-21T08:29:34.691Z,69.58
2018-03-21T08:32:02.295Z,70.45
2018-03-21T08:34:29.858Z,69.79
2018-03-21T08:36:57.442Z,70.84
2018-03-21T08:39:25.012Z,70.21
2018-03-21T08:41:52.596Z,70.61
2018-03-21T08:44:20.158Z,68.16
2018-03-21T08:46:47.731Z,65.83
2018-03-21T08:49:15.296Z,63.79
2018-03-21T08:51:42.991Z,62.33
2018-03-21T08:54:10.778Z,61.09
2018-03-21T08:56:38.346Z,59.18
2018-03-21T08:59:05.920Z,58.55
2018-03-21T09:01:33.495Z,59.10
2018-03-21T09:04:01.071Z,60.49
2018-03-21T09:06:28.640Z,60.94
2018-03-21T09:08:56.275Z,61.35
2018-03-21T09:11:23.842Z,61.68
2018-03-21T09:13:51.522Z,62.22
2018-03-21T09:16:19.151Z,62.91
2018-03-21T09:18:46.714Z,60.68
2018-03-21T09:21:14.350Z,60.10
2018-03-21T09:23:41.910Z,59.72
2018-03-21T09:26:09.505Z,61.43
2018-03-21T09:28:37.079Z,62.46
2018-03-21T09:31:04.723Z,62.21
2018-03-21T09:33:32.286Z,61.69
2018-03-21T09:35:59.978Z,61.52
2018-03-21T09:38:27.560Z,62.36
2018-03-21T09:40:55.143Z,61.46
2018-03-21T09:43:22.719Z,62.21
2018-03-21T09:45:50.283Z,62.20
2018-03-21T09:48:17.872Z,60.86
2018-03-21T09:50:45.443Z,59.71
2018-03-21T09:53:13.017Z,60.00
2018-03-21T09:55:40.582Z,61.87
2018-03-21T09:58:08.276Z,61.64
2018-03-21T10:00:35.853Z,62.69
2018-03-21T10:03:03.428Z,63.53
2018-03-21T10:05:31.064Z,63.12
2018-03-21T10:07:58.626Z,65.18
2018-03-21T10:10:26.196Z,65.74
2018-03-21T10:12:53.820Z,65.66
2018-03-21T10:15:21.406Z,66.67
2018-03-21T10:17:48.963Z,66.33
2018-03-21T10:20:16.613Z,66.11
2018-03-21T10:22:44.185Z,65.59
2018-03-21T10:25:11.753Z,65.76
2018-03-21T10:27:39.394Z,65.88
2018-03-21T10:30:07.024Z,65.00
2018-03-21T10:32:34.595Z,66.08
2018-03-21T10:35:02.158Z,67.20
2018-03-21T10:37:29.785Z,66.36
2018-03-21T10:39:57.342Z,66.64
2018-03-21T10:42:24.962Z,67.88
2018-03-21T10:44:52.606Z,67.41
2018-03-21T10:47:20.268Z,67.66
2018-03-21T10:49:47.876Z,67.31
2018-03-21T10:52:15.445Z,68.05
2018-03-21T10:54:43.086Z,67.80
2018-03-21T10:57:10.692Z,68.00
2018-03-21T10:59:38.307Z,67.93
2018-03-21T11:02:11.479Z,68.49
2018-03-21T11:04:39.185Z,69.36
2018-03-21T11:07:06.819Z,69.64
2018-03-21T11:09:34.388Z,69.96
2018-03-21T11:12:01.964Z,69.62
2018-03-21T11:14:29.530Z,70.38
2018-03-21T11:16:57.102Z,70.25
2018-03-21T11:19:24.666Z,69.80
2018-03-21T11:21:52.243Z,69.55
2018-03-21T11:24:19.898Z,70.61
2018-03-21T11:26:47.482Z,70.02
2018-03-21T11:29:15.044Z,69.95
2018-03-21T11:31:42.606Z,71.29
2018-03-21T11:34:10.270Z,71.80
2018-03-21T11:36:37.841Z,71.46
2018-03-21T11:39:05.420Z,72.14
2018-03-21T11:41:32.994Z,72.55
2018-03-21T11:44:00.627Z,72.50
2018-03-21T11:46:28.256Z,71.99
2018-03-21T11:48:55.834Z,71.60
2018-03-21T11:51:23.459Z,70.73
2018-03-21T11:53:51.085Z,70.86
2018-03-21T11:56:18.654Z,70.00
2018-03-21T11:58:46.221Z,68.72
2018-03-21T12:01:13.897Z,69.51
2018-03-21T12:03:41.767Z,69.55
2018-03-21T12:06:09.467Z,70.18
2018-03-21T12:08:37.137Z,70.72
2018-03-21T12:11:04.766Z,72.68
2018-03-21T12:13:32.327Z,74.36
2018-03-21T12:15:59.894Z,74.22
2018-03-21T12:18:27.534Z,74.58
2018-03-21T12:20:55.101Z,75.84
2018-03-21T12:23:22.673Z,75.98
2018-03-21T12:25:50.249Z,76.03
2018-03-21T12:28:17.822Z,76.44
2018-03-21T12:30:45.392Z,76.41
2018-03-21T12:33:13.014Z,76.21
2018-03-21T12:35:40.586Z,76.51
2018-03-21T12:38:08.255Z,77.49
2018-03-21T12:40:35.841Z,78.37
2018-03-21T12:43:03.421Z,78.98
2018-03-21T12:45:30.998Z,80.28
2018-03-21T12:47:58.577Z,79.75
2018-03-21T12:50:26.210Z,78.74
2018-03-21T12:52:53.779Z,79.26
2018-03-21T12:55:21.411Z,79.33
2018-03-21T12:57:49.035Z,79.69
2018-03-21T13:00:16.602Z,80.06
2018-03-21T13:02:44.183Z,80.38
2018-03-21T13:05:11.756Z,81.27
2018-03-21T13:07:39.340Z,82.08
2018-03-21T13:10:06.928Z,82.72
2018-03-21T13:12:34.510Z,83.31
2018-03-21T13:15:02.074Z,84.59
2018-03-21T13:17:29.702Z,84.99
2018-03-21T13:19:57.335Z,84.87
2018-03-21T13:22:24.939Z,84.49
2018-03-21T13:24:52.514Z,84.62
2018-03-21T13:27:20.138Z,84.75
2018-03-21T13:29:47.771Z,84.39
2018-03-21T13:32:15.399Z,84.46
2018-03-21T13:34:43.037Z,84.57
2018-03-21T13:37:10.602Z,84.87
2018-03-21T13:39:38.222Z,84.30
2018-03-21T13:42:05.843Z,83.91
2018-03-21T13:44:33.414Z,83.59
2018-03-21T13:47:01.063Z,83.04
2018-03-21T13:49:28.625Z,82.67
2018-03-21T13:51:56.203Z,83.62
2018-03-21T13:54:23.844Z,82.79
2018-03-21T13:56:51.475Z,83.17
2018-03-21T13:59:19.038Z,82.68
2018-03-21T14:01:46.654Z,82.72
2018-03-21T14:04:14.303Z,82.06
2018-03-21T14:06:41.928Z,81.42
2018-03-21T14:09:09.569Z,81.00
2018-03-21T14:11:37.233Z,81.16
2018-03-21T14:14:04.876Z,81.17
2018-03-21T14:16:32.478Z,81.35
2018-03-21T14:19:00.119Z,81.22
2018-03-21T14:21:27.747Z,81.29
2018-03-21T14:23:55.427Z,80.47
2018-03-21T14:26:23.057Z,80.68
2018-03-21T14:28:50.683Z,81.17
2018-03-21T14:31:18.273Z,81.36
2018-03-21T14:33:45.847Z,81.77
2018-03-21T14:36:13.420Z,82.50
2018-03-21T14:38:41.045Z,82.63
2018-03-21T14:41:08.735Z,83.27
2018-03-21T14:43:36.299Z,83.30
2018-03-21T14:46:03.876Z,83.77
2018-03-21T14:48:31.446Z,84.33
2018-03-21T14:50:59.088Z,84.75
2018-03-21T14:53:26.733Z,84.34
2018-03-21T14:55:54.376Z,84.88
2018-03-21T14:58:22.068Z,84.52
2018-03-21T15:00:51.168Z,85.04
2018-03-21T15:03:18.806Z,85.50
2018-03-21T15:05:46.487Z,86.33
2018-03-21T15:08:14.070Z,86.54
2018-03-21T15:10:41.654Z,86.29
2018-03-21T15:13:09.303Z,86.51
2018-03-21T15:15:36.884Z,86.70
2018-03-21T15:18:05.094Z,86.95
2018-03-21T15:20:32.718Z,86.99
2018-03-21T15:23:00.309Z,87.13
2018-03-21T15:25:27.883Z,87.21
2018-03-21T15:27:55.457Z,87.42
2018-03-21T15:30:23.020Z,87.64
2018-03-21T15:32:50.695Z,87.95
2018-03-21T15:35:18.346Z,88.27
2018-03-21T15:37:45.945Z,88.38
2018-03-21T15:40:13.528Z,88.50
2018-03-21T15:42:41.167Z,88.37
2018-03-21T15:45:08.757Z,87.98
2018-03-21T15:47:36.420Z,87.88
2018-03-21T15:50:04.075Z,88.19
2018-03-21T15:52:31.659Z,87.83
2018-03-21T15:54:59.243Z,88.02
2018-03-21T15:57:26.880Z,88.64
2018-03-21T15:59:54.517Z,88.66
2018-03-21T16:02:22.693Z,88.99
2018-03-21T16:04:50.274Z,88.99
2018-03-21T16:07:18.595Z,89.20
2018-03-21T16:09:46.227Z,89.82
2018-03-21T16:12:13.810Z,89.50
2018-03-21T16:14:41.401Z,89.61
2018-03-21T16:17:09.047Z,90.17
2018-03-21T16:19:36.618Z,89.69
2018-03-21T16:22:04.256Z,90.43
2018-03-21T16:24:31.833Z,90.77
2018-03-21T16:26:59.498Z,91.18
2018-03-21T16:29:27.080Z,91.25
2018-03-21T16:31:54.654Z,91.18
2018-03-21T16:34:22.235Z,91.34
2018-03-21T16:36:49.810Z,91.53
2018-03-21T16:39:17.400Z,91.68
2018-03-21T16:41:44.970Z,91.68
2018-03-21T16:44:12.590Z,91.69
2018-03-21T16:46:40.178Z,91.77
2018-03-21T16:49:07.764Z,91.79
2018-03-21T16:51:35.362Z,91.66
2018-03-21T16:54:02.999Z,91.97
2018-03-21T16:56:30.574Z,92.20
2018-03-21T16:58:58.224Z,92.30
2018-03-21T17:01:25.802Z,92.33
2018-03-21T17:03:53.371Z,92.27
2018-03-21T17:06:20.995Z,92.25
2018-03-21T17:08:48.578Z,92.30
2018-03-21T17:11:16.206Z,91.86
2018-03-21T17:13:43.794Z,92.15
2018-03-21T17:16:11.375Z,92.23
2018-03-21T17:18:39.050Z,92.29
2018-03-21T17:21:06.627Z,92.17
2018-03-21T17:23:34.251Z,92.10
2018-03-21T17:26:01.886Z,91.90
2018-03-21T17:28:29.533Z,92.06
2018-03-21T17:30:57.114Z,91.93
2018-03-21T17:33:24.691Z,92.11
2018-03-21T17:35:52.280Z,92.22
2018-03-21T17:38:19.866Z,92.18
2018-03-21T17:40:47.448Z,92.21
2018-03-21T17:43:15.054Z,92.43
2018-03-21T17:45:42.716Z,92.44
2018-03-21T17:48:10.302Z,92.30
2018-03-21T17:50:37.887Z,92.13
2018-03-21T17:53:05.476Z,91.95
2018-03-21T17:55:33.061Z,91.80
2018-03-21T17:58:00.650Z,91.82
2018-03-21T18:00:28.297Z,91.63
2018-03-21T18:02:55.884Z,91.86
2018-03-21T18:05:23.456Z,92.08
2018-03-21T18:07:51.143Z,92.05
2018-03-21T18:10:18.723Z,91.88
2018-03-21T18:12:46.371Z,92.06
2018-03-21T18:15:13.989Z,91.99
2018-03-21T18:17:41.566Z,91.87
2018-03-21T18:20:09.150Z,91.77
2018-03-21T18:22:36.730Z,91.50
2018-03-21T18:25:04.344Z,91.58
2018-03-21T18:27:31.916Z,91.65
2018-03-21T18:29:59.556Z,91.31
2018-03-21T18:32:27.156Z,91.22
2018-03-21T18:34:54.809Z,91.21
2018-03-21T18:37:22.473Z,91.45
2018-03-21T18:39:50.116Z,91.65
2018-03-21T18:42:17.794Z,91.64
2018-03-21T18:44:45.431Z,91.54
2018-03-21T18:47:13.044Z,91.46
2018-03-21T18:49:40.707Z,91.49
2018-03-21T18:52:08.387Z,91.44
2018-03-21T18:54:36.134Z,91.44
2018-03-21T18:57:03.774Z,91.36
2018-03-21T18:59:31.567Z,91.33
2018-03-21T19:01:59.257Z,91.11
2018-03-21T19:04:26.909Z,91.07
2018-03-21T19:06:54.601Z,91.09
2018-03-21T19:09:22.291Z,91.26
2018-03-21T19:11:49.867Z,91.48
2018-03-21T19:14:17.521Z,91.29
2018-03-21T19:16:45.255Z,91.27
2018-03-21T19:19:12.840Z,91.46
2018-03-21T19:21:40.488Z,91.90
2018-03-21T19:24:08.244Z,91.88
2018-03-21T19:26:35.904Z,91.86
2018-03-21T19:29:04.048Z,91.87
2018-03-21T19:31:31.637Z,91.96
2018-03-21T19:33:59.291Z,92.00
2018-03-21T19:36:27.027Z,91.94
2018-03-21T19:38:54.598Z,92.00
2018-03-21T19:41:22.178Z,92.04
2018-03-21T19:43:49.839Z,91.86
2018-03-21T19:46:17.470Z,91.96
2018-03-21T19:48:45.080Z,92.16
2018-03-21T19:51:13.922Z,92.28
2018-03-21T19:53:41.507Z,92.33
2018-03-21T19:56:09.094Z,92.43
2018-03-21T19:58:36.742Z,92.52
2018-03-21T20:01:04.325Z,92.50
2018-03-21T20:03:31.964Z,92.50
2018-03-21T20:05:59.608Z,92.32
2018-03-21T20:08:27.193Z,92.19
2018-03-21T20:10:54.780Z,92.03
2018-03-21T20:13:22.408Z,91.96
2018-03-21T20:15:50.036Z,92.09
2018-03-21T20:18:17.603Z,92.13
2018-03-21T20:20:45.222Z,91.98
2018-03-21T20:23:12.851Z,92.07
2018-03-21T20:25:40.534Z,92.28
2018-03-21T20:28:08.136Z,92.32
2018-03-21T20:30:35.725Z,92.28
2018-03-21T20:33:03.371Z,92.10
2018-03-21T20:35:30.945Z,91.83
2018-03-21T20:37:58.605Z,91.95
2018-03-21T20:40:26.237Z,91.99
2018-03-21T20:42:53.825Z,91.89
2018-03-21T20:45:21.402Z,91.89
2018-03-21T20:47:49.046Z,91.74
2018-03-21T20:50:16.622Z,91.65
2018-03-21T20:52:44.200Z,91.59
2018-03-21T20:55:11.801Z,91.62
2018-03-21T20:57:39.450Z,91.64
2018-03-21T21:00:07.090Z,91.72
2018-03-21T21:02:34.714Z,92.00
2018-03-21T21:05:02.352Z,91.88
2018-03-21T21:07:30.000Z,92.05
2018-03-21T21:09:57.631Z,92.04
2018-03-21T21:12:25.275Z,92.12
2018-03-21T21:14:52.844Z,92.09
2018-03-21T21:17:20.425Z,91.94
2018-03-21T21:19:48.080Z,91.42
2018-03-21T21:22:15.780Z,91.25
2018-03-21T21:24:43.372Z,91.16
2018-03-21T21:27:10.942Z,91.03
2018-03-21T21:29:38.526Z,91.13
2018-03-21T21:32:06.103Z,91.05
2018-03-21T21:34:33.695Z,90.85
2018-03-21T21:37:01.273Z,90.74
2018-03-21T21:39:28.864Z,90.85
2018-03-21T21:41:56.503Z,91.01
2018-03-21T21:44:24.132Z,91.06
2018-03-21T21:46:51.802Z,91.02
2018-03-21T21:49:19.484Z,90.96
2018-03-21T21:51:47.123Z,90.92
2018-03-21T21:54:14.702Z,90.88
2018-03-21T21:56:42.283Z,90.94
2018-03-21T21:59:09.925Z,91.21
2018-03-21T22:01:37.514Z,91.26
2018-03-21T22:04:05.125Z,91.29
2018-03-21T22:06:32.763Z,91.07
2018-03-21T22:09:00.335Z,90.97
2018-03-21T22:11:27.905Z,90.87
2018-03-21T22:13:55.491Z,90.95
2018-03-21T22:16:23.124Z,90.63
2018-03-21T22:18:50.709Z,90.67
2018-03-21T22:21:18.338Z,90.72
2018-03-21T22:23:45.915Z,90.72
2018-03-21T22:26:13.484Z,90.79
2018-03-21T22:28:41.106Z,90.81
2018-03-21T22:31:08.739Z,90.86
2018-03-21T22:33:36.311Z,90.88
2018-03-21T22:36:03.890Z,90.88
2018-03-21T22:38:31.454Z,90.64
2018-03-21T22:40:59.043Z,90.59
2018-03-21T22:43:26.615Z,90.57
2018-03-21T22:45:54.193Z,90.39
2018-03-21T22:48:21.765Z,90.28
2018-03-21T22:50:49.454Z,90.11
2018-03-21T22:53:17.127Z,90.01
2018-03-21T22:55:44.744Z,90.14
2018-03-21T22:58:12.340Z,90.22
2018-03-21T23:00:39.998Z,90.21
2018-03-21T23:03:07.561Z,89.97
2018-03-21T23:05:35.131Z,89.80
2018-03-21T23:08:02.722Z,89.99
2018-03-21T23:10:30.298Z,90.16
2018-03-21T23:12:57.987Z,90.36
2018-03-21T23:15:25.624Z,90.33
2018-03-21T23:17:53.194Z,90.29
2018-03-21T23:20:20.780Z,90.44
2018-03-21T23:22:48.354Z,90.42
2018-03-21T23:25:15.991Z,90.51
2018-03-21T23:27:43.573Z,90.56
2018-03-21T23:30:11.223Z,90.63
2018-03-21T23:32:38.794Z,90.48
2018-03-21T23:35:06.485Z,90.46
2018-03-21T23:37:34.122Z,90.41
2018-03-21T23:40:01.709Z,90.49
2018-03-21T23:42:29.301Z,90.49
2018-03-21T23:44:56.880Z,90.50
2018-03-21T23:47:24.527Z,90.44
2018-03-21T23:49:52.117Z,90.45
2018-03-21T23:52:19.704Z,90.54
2018-03-21T23:54:47.291Z,90.39
2018-03-21T23:57:14.927Z,90.43
2018-03-21T23:59:42.582Z,90.62
